sensor_id;sensor_type;location;lat;lon;timestamp;P1;durP1;ratioP1;P2;durP2;ratioP2
74158;SDS011;62511;47.970;11.774;2023-08-30T00:00:45;7.95;;;4.75;;
74158;SDS011;62511;47.970;11.774;2023-08-30T00:03:11;8.10;;;4.85;;
74158;SDS011;62511;47.970;11.774;2023-08-30T00:05:42;7.95;;;4.32;;
74158;SDS011;62511;47.970;11.774;2023-08-30T00:08:08;8.77;;;5.43;;
74158;SDS011;62511;47.970;11.774;2023-08-30T00:10:38;7.07;;;4.43;;
74158;SDS011;62511;47.970;11.774;2023-08-30T00:13:04;9.70;;;5.20;;
74158;SDS011;62511;47.970;11.774;2023-08-30T00:15:30;8.43;;;4.95;;
74158;SDS011;62511;47.970;11.774;2023-08-30T00:17:56;8.48;;;5.07;;
74158;SDS011;62511;47.970;11.774;2023-08-30T00:20:22;9.13;;;4.65;;
74158;SDS011;62511;47.970;11.774;2023-08-30T00:22:49;8.98;;;4.82;;
74158;SDS011;62511;47.970;11.774;2023-08-30T00:25:15;8.45;;;4.80;;
74158;SDS011;62511;47.970;11.774;2023-08-30T00:30:45;9.32;;;4.80;;
74158;SDS011;62511;47.970;11.774;2023-08-30T00:33:11;11.05;;;5.68;;
74158;SDS011;62511;47.970;11.774;2023-08-30T00:35:37;9.15;;;5.22;;
74158;SDS011;62511;47.970;11.774;2023-08-30T00:38:03;9.52;;;4.95;;
74158;SDS011;62511;47.970;11.774;2023-08-30T00:40:32;11.30;;;5.55;;
74158;SDS011;62511;47.970;11.774;2023-08-30T00:43:03;9.35;;;5.22;;
74158;SDS011;62511;47.970;11.774;2023-08-30T00:45:29;10.73;;;5.30;;
74158;SDS011;62511;47.970;11.774;2023-08-30T00:47:57;9.50;;;5.45;;
74158;SDS011;62511;47.970;11.774;2023-08-30T00:50:23;8.73;;;5.30;;
74158;SDS011;62511;47.970;11.774;2023-08-30T00:52:49;8.43;;;4.53;;
74158;SDS011;62511;47.970;11.774;2023-08-30T00:55:15;9.65;;;5.70;;
74158;SDS011;62511;47.970;11.774;2023-08-30T00:57:41;9.70;;;5.68;;
74158;SDS011;62511;47.970;11.774;2023-08-30T01:00:09;10.75;;;5.55;;
74158;SDS011;62511;47.970;11.774;2023-08-30T01:02:35;10.50;;;5.50;;
74158;SDS011;62511;47.970;11.774;2023-08-30T01:05:02;9.35;;;4.72;;
74158;SDS011;62511;47.970;11.774;2023-08-30T01:07:28;8.18;;;4.82;;
74158;SDS011;62511;47.970;11.774;2023-08-30T01:09:56;8.05;;;5.05;;
74158;SDS011;62511;47.970;11.774;2023-08-30T01:12:23;9.45;;;5.20;;
74158;SDS011;62511;47.970;11.774;2023-08-30T01:14:55;11.35;;;4.97;;
74158;SDS011;62511;47.970;11.774;2023-08-30T01:17:22;8.40;;;4.70;;
74158;SDS011;62511;47.970;11.774;2023-08-30T01:22:29;8.55;;;5.05;;
74158;SDS011;62511;47.970;11.774;2023-08-30T01:27:33;8.32;;;4.70;;
74158;SDS011;62511;47.970;11.774;2023-08-30T01:30:02;8.18;;;4.63;;
74158;SDS011;62511;47.970;11.774;2023-08-30T01:32:30;8.75;;;4.68;;
74158;SDS011;62511;47.970;11.774;2023-08-30T01:34:57;9.00;;;5.20;;
74158;SDS011;62511;47.970;11.774;2023-08-30T01:37:24;8.02;;;4.63;;
74158;SDS011;62511;47.970;11.774;2023-08-30T01:39:51;9.25;;;4.88;;
74158;SDS011;62511;47.970;11.774;2023-08-30T01:42:17;9.02;;;4.97;;
74158;SDS011;62511;47.970;11.774;2023-08-30T01:44:48;9.13;;;5.07;;
74158;SDS011;62511;47.970;11.774;2023-08-30T01:47:14;8.32;;;5.10;;
74158;SDS011;62511;47.970;11.774;2023-08-30T01:49:45;7.85;;;4.38;;
74158;SDS011;62511;47.970;11.774;2023-08-30T01:52:11;6.90;;;4.70;;
74158;SDS011;62511;47.970;11.774;2023-08-30T01:54:37;9.02;;;4.80;;
74158;SDS011;62511;47.970;11.774;2023-08-30T01:57:04;6.70;;;4.07;;
74158;SDS011;62511;47.970;11.774;2023-08-30T01:59:30;6.78;;;4.30;;
74158;SDS011;62511;47.970;11.774;2023-08-30T02:01:56;7.63;;;4.20;;
74158;SDS011;62511;47.970;11.774;2023-08-30T02:04:22;8.43;;;4.38;;
74158;SDS011;62511;47.970;11.774;2023-08-30T02:07:00;7.57;;;4.63;;
74158;SDS011;62511;47.970;11.774;2023-08-30T02:09:28;5.65;;;3.60;;
74158;SDS011;62511;47.970;11.774;2023-08-30T02:11:55;6.97;;;4.22;;
74158;SDS011;62511;47.970;11.774;2023-08-30T02:14:22;7.28;;;4.53;;
74158;SDS011;62511;47.970;11.774;2023-08-30T02:16:50;6.88;;;3.63;;
74158;SDS011;62511;47.970;11.774;2023-08-30T02:19:17;7.00;;;4.15;;
74158;SDS011;62511;47.970;11.774;2023-08-30T02:21:46;7.07;;;4.20;;
74158;SDS011;62511;47.970;11.774;2023-08-30T02:24:12;6.93;;;4.05;;
74158;SDS011;62511;47.970;11.774;2023-08-30T02:26:38;7.78;;;4.47;;
74158;SDS011;62511;47.970;11.774;2023-08-30T02:29:05;6.70;;;3.78;;
74158;SDS011;62511;47.970;11.774;2023-08-30T02:31:33;7.40;;;4.07;;
74158;SDS011;62511;47.970;11.774;2023-08-30T02:33:59;6.65;;;4.22;;
74158;SDS011;62511;47.970;11.774;2023-08-30T02:36:25;8.30;;;3.85;;
74158;SDS011;62511;47.970;11.774;2023-08-30T02:38:51;5.75;;;3.60;;
74158;SDS011;62511;47.970;11.774;2023-08-30T02:41:17;5.32;;;3.10;;
74158;SDS011;62511;47.970;11.774;2023-08-30T02:43:43;5.00;;;3.10;;
74158;SDS011;62511;47.970;11.774;2023-08-30T02:46:09;4.93;;;2.80;;
74158;SDS011;62511;47.970;11.774;2023-08-30T02:48:35;4.25;;;2.55;;
74158;SDS011;62511;47.970;11.774;2023-08-30T02:51:01;5.95;;;3.20;;
74158;SDS011;62511;47.970;11.774;2023-08-30T02:53:27;4.18;;;2.95;;
74158;SDS011;62511;47.970;11.774;2023-08-30T02:55:53;5.80;;;3.13;;
74158;SDS011;62511;47.970;11.774;2023-08-30T02:58:20;4.03;;;2.70;;
74158;SDS011;62511;47.970;11.774;2023-08-30T03:00:46;4.18;;;2.65;;
74158;SDS011;62511;47.970;11.774;2023-08-30T03:03:12;3.92;;;2.53;;
74158;SDS011;62511;47.970;11.774;2023-08-30T03:05:38;3.95;;;2.22;;
74158;SDS011;62511;47.970;11.774;2023-08-30T03:08:05;3.38;;;2.55;;
74158;SDS011;62511;47.970;11.774;2023-08-30T03:10:31;2.92;;;2.10;;
74158;SDS011;62511;47.970;11.774;2023-08-30T03:12:57;2.67;;;1.80;;
74158;SDS011;62511;47.970;11.774;2023-08-30T03:15:23;3.17;;;2.08;;
74158;SDS011;62511;47.970;11.774;2023-08-30T03:17:49;2.47;;;1.73;;
74158;SDS011;62511;47.970;11.774;2023-08-30T03:20:16;3.60;;;2.00;;
74158;SDS011;62511;47.970;11.774;2023-08-30T03:22:42;2.80;;;1.90;;
74158;SDS011;62511;47.970;11.774;2023-08-30T03:25:08;2.83;;;2.00;;
74158;SDS011;62511;47.970;11.774;2023-08-30T03:27:34;2.45;;;1.80;;
74158;SDS011;62511;47.970;11.774;2023-08-30T03:30:01;2.00;;;1.48;;
74158;SDS011;62511;47.970;11.774;2023-08-30T03:32:28;5.75;;;1.60;;
74158;SDS011;62511;47.970;11.774;2023-08-30T03:34:55;2.20;;;1.55;;
74158;SDS011;62511;47.970;11.774;2023-08-30T03:37:22;2.20;;;1.60;;
74158;SDS011;62511;47.970;11.774;2023-08-30T03:39:48;2.42;;;1.42;;
74158;SDS011;62511;47.970;11.774;2023-08-30T03:42:14;1.60;;;1.30;;
74158;SDS011;62511;47.970;11.774;2023-08-30T03:44:40;2.00;;;1.45;;
74158;SDS011;62511;47.970;11.774;2023-08-30T03:47:06;2.10;;;1.27;;
74158;SDS011;62511;47.970;11.774;2023-08-30T03:49:32;2.97;;;1.40;;
74158;SDS011;62511;47.970;11.774;2023-08-30T03:51:58;1.60;;;1.27;;
74158;SDS011;62511;47.970;11.774;2023-08-30T03:54:24;2.30;;;1.25;;
74158;SDS011;62511;47.970;11.774;2023-08-30T03:56:50;2.58;;;1.40;;
74158;SDS011;62511;47.970;11.774;2023-08-30T03:59:17;2.25;;;1.30;;
74158;SDS011;62511;47.970;11.774;2023-08-30T04:01:43;1.73;;;1.20;;
74158;SDS011;62511;47.970;11.774;2023-08-30T04:04:10;1.40;;;1.15;;
74158;SDS011;62511;47.970;11.774;2023-08-30T04:06:36;1.60;;;1.25;;
74158;SDS011;62511;47.970;11.774;2023-08-30T04:09:02;2.05;;;1.40;;
74158;SDS011;62511;47.970;11.774;2023-08-30T04:11:28;1.30;;;1.20;;
74158;SDS011;62511;47.970;11.774;2023-08-30T04:13:54;1.40;;;1.20;;
74158;SDS011;62511;47.970;11.774;2023-08-30T04:16:20;1.60;;;1.30;;
74158;SDS011;62511;47.970;11.774;2023-08-30T04:18:46;2.10;;;1.40;;
74158;SDS011;62511;47.970;11.774;2023-08-30T04:21:12;1.60;;;1.35;;
74158;SDS011;62511;47.970;11.774;2023-08-30T04:23:38;2.42;;;1.80;;
74158;SDS011;62511;47.970;11.774;2023-08-30T04:26:04;2.00;;;1.42;;
74158;SDS011;62511;47.970;11.774;2023-08-30T04:28:30;1.85;;;1.42;;
74158;SDS011;62511;47.970;11.774;2023-08-30T04:30:56;1.98;;;1.00;;
74158;SDS011;62511;47.970;11.774;2023-08-30T04:33:22;1.88;;;1.17;;
74158;SDS011;62511;47.970;11.774;2023-08-30T04:35:52;2.13;;;1.38;;
74158;SDS011;62511;47.970;11.774;2023-08-30T04:38:18;2.58;;;1.50;;
74158;SDS011;62511;47.970;11.774;2023-08-30T04:40:44;1.95;;;1.00;;
74158;SDS011;62511;47.970;11.774;2023-08-30T04:43:12;2.30;;;1.42;;
74158;SDS011;62511;47.970;11.774;2023-08-30T04:48:04;1.15;;;1.00;;
74158;SDS011;62511;47.970;11.774;2023-08-30T04:50:31;1.38;;;1.20;;
74158;SDS011;62511;47.970;11.774;2023-08-30T04:52:57;3.55;;;1.13;;
74158;SDS011;62511;47.970;11.774;2023-08-30T04:55:24;1.55;;;1.08;;
74158;SDS011;62511;47.970;11.774;2023-08-30T04:57:50;2.05;;;1.08;;
74158;SDS011;62511;47.970;11.774;2023-08-30T05:00:16;1.77;;;1.20;;
74158;SDS011;62511;47.970;11.774;2023-08-30T05:02:44;1.90;;;1.30;;
74158;SDS011;62511;47.970;11.774;2023-08-30T05:05:11;2.75;;;1.33;;
74158;SDS011;62511;47.970;11.774;2023-08-30T05:07:37;2.03;;;1.17;;
74158;SDS011;62511;47.970;11.774;2023-08-30T05:10:04;1.30;;;1.20;;
74158;SDS011;62511;47.970;11.774;2023-08-30T05:12:30;2.80;;;1.10;;
74158;SDS011;62511;47.970;11.774;2023-08-30T05:14:56;1.63;;;1.10;;
74158;SDS011;62511;47.970;11.774;2023-08-30T05:17:22;2.00;;;0.82;;
74158;SDS011;62511;47.970;11.774;2023-08-30T05:19:48;1.27;;;1.02;;
74158;SDS011;62511;47.970;11.774;2023-08-30T05:22:14;1.33;;;1.23;;
74158;SDS011;62511;47.970;11.774;2023-08-30T05:24:41;2.28;;;1.20;;
74158;SDS011;62511;47.970;11.774;2023-08-30T05:27:07;2.60;;;1.20;;
74158;SDS011;62511;47.970;11.774;2023-08-30T05:29:33;1.33;;;1.20;;
74158;SDS011;62511;47.970;11.774;2023-08-30T05:31:59;1.80;;;1.40;;
74158;SDS011;62511;47.970;11.774;2023-08-30T05:34:25;1.17;;;0.95;;
74158;SDS011;62511;47.970;11.774;2023-08-30T05:36:52;2.03;;;1.70;;
74158;SDS011;62511;47.970;11.774;2023-08-30T05:39:18;1.75;;;1.10;;
74158;SDS011;62511;47.970;11.774;2023-08-30T05:41:44;1.75;;;1.10;;
74158;SDS011;62511;47.970;11.774;2023-08-30T05:44:10;1.88;;;1.50;;
74158;SDS011;62511;47.970;11.774;2023-08-30T05:46:38;2.35;;;1.73;;
74158;SDS011;62511;47.970;11.774;2023-08-30T05:49:04;2.60;;;1.52;;
74158;SDS011;62511;47.970;11.774;2023-08-30T05:51:31;2.10;;;1.40;;
74158;SDS011;62511;47.970;11.774;2023-08-30T05:53:57;2.55;;;1.10;;
74158;SDS011;62511;47.970;11.774;2023-08-30T05:56:24;2.05;;;1.33;;
74158;SDS011;62511;47.970;11.774;2023-08-30T06:01:17;1.58;;;1.15;;
74158;SDS011;62511;47.970;11.774;2023-08-30T06:03:44;1.83;;;1.30;;
74158;SDS011;62511;47.970;11.774;2023-08-30T06:06:11;1.50;;;1.20;;
74158;SDS011;62511;47.970;11.774;2023-08-30T06:08:37;1.73;;;1.20;;
74158;SDS011;62511;47.970;11.774;2023-08-30T06:11:03;1.60;;;0.95;;
74158;SDS011;62511;47.970;11.774;2023-08-30T06:13:29;1.42;;;1.00;;
74158;SDS011;62511;47.970;11.774;2023-08-30T06:15:55;3.33;;;1.40;;
74158;SDS011;62511;47.970;11.774;2023-08-30T06:18:21;2.22;;;1.40;;
74158;SDS011;62511;47.970;11.774;2023-08-30T06:20:47;1.65;;;1.20;;
74158;SDS011;62511;47.970;11.774;2023-08-30T06:23:13;1.48;;;1.20;;
74158;SDS011;62511;47.970;11.774;2023-08-30T06:25:40;1.73;;;1.42;;
74158;SDS011;62511;47.970;11.774;2023-08-30T06:28:08;4.57;;;2.00;;
74158;SDS011;62511;47.970;11.774;2023-08-30T06:30:35;2.40;;;1.38;;
74158;SDS011;62511;47.970;11.774;2023-08-30T06:33:01;1.52;;;1.20;;
74158;SDS011;62511;47.970;11.774;2023-08-30T06:35:27;1.38;;;1.08;;
74158;SDS011;62511;47.970;11.774;2023-08-30T06:37:53;1.38;;;0.98;;
74158;SDS011;62511;47.970;11.774;2023-08-30T06:42:46;2.67;;;1.20;;
74158;SDS011;62511;47.970;11.774;2023-08-30T06:45:12;1.30;;;1.20;;
74158;SDS011;62511;47.970;11.774;2023-08-30T06:47:39;3.17;;;1.30;;
74158;SDS011;62511;47.970;11.774;2023-08-30T06:50:05;1.80;;;1.23;;
74158;SDS011;62511;47.970;11.774;2023-08-30T06:52:34;2.50;;;1.30;;
74158;SDS011;62511;47.970;11.774;2023-08-30T06:57:27;2.15;;;1.48;;
74158;SDS011;62511;47.970;11.774;2023-08-30T06:59:53;1.60;;;1.30;;
74158;SDS011;62511;47.970;11.774;2023-08-30T07:02:19;2.50;;;1.67;;
74158;SDS011;62511;47.970;11.774;2023-08-30T07:04:45;1.50;;;1.33;;
74158;SDS011;62511;47.970;11.774;2023-08-30T07:07:12;2.58;;;1.67;;
74158;SDS011;62511;47.970;11.774;2023-08-30T07:09:38;2.00;;;1.65;;
74158;SDS011;62511;47.970;11.774;2023-08-30T07:12:07;2.38;;;1.35;;
74158;SDS011;62511;47.970;11.774;2023-08-30T07:14:33;2.05;;;1.33;;
74158;SDS011;62511;47.970;11.774;2023-08-30T07:16:59;1.92;;;1.30;;
74158;SDS011;62511;47.970;11.774;2023-08-30T07:19:25;2.63;;;1.42;;
74158;SDS011;62511;47.970;11.774;2023-08-30T07:21:51;2.15;;;1.77;;
74158;SDS011;62511;47.970;11.774;2023-08-30T07:24:17;1.42;;;1.20;;
74158;SDS011;62511;47.970;11.774;2023-08-30T07:26:43;1.48;;;1.13;;
74158;SDS011;62511;47.970;11.774;2023-08-30T07:29:10;1.55;;;1.40;;
74158;SDS011;62511;47.970;11.774;2023-08-30T07:31:36;2.00;;;1.30;;
74158;SDS011;62511;47.970;11.774;2023-08-30T07:34:02;1.60;;;1.25;;
74158;SDS011;62511;47.970;11.774;2023-08-30T07:36:29;2.13;;;1.60;;
74158;SDS011;62511;47.970;11.774;2023-08-30T07:38:58;2.35;;;1.70;;
74158;SDS011;62511;47.970;11.774;2023-08-30T07:41:25;2.65;;;1.50;;
74158;SDS011;62511;47.970;11.774;2023-08-30T07:43:52;1.73;;;1.38;;
74158;SDS011;62511;47.970;11.774;2023-08-30T07:46:18;3.60;;;1.75;;
74158;SDS011;62511;47.970;11.774;2023-08-30T07:48:44;2.63;;;1.92;;
74158;SDS011;62511;47.970;11.774;2023-08-30T07:51:10;1.65;;;1.42;;
74158;SDS011;62511;47.970;11.774;2023-08-30T07:53:36;2.80;;;1.85;;
74158;SDS011;62511;47.970;11.774;2023-08-30T07:56:02;2.90;;;1.90;;
74158;SDS011;62511;47.970;11.774;2023-08-30T07:58:28;3.67;;;1.85;;
74158;SDS011;62511;47.970;11.774;2023-08-30T08:00:55;3.30;;;2.05;;
74158;SDS011;62511;47.970;11.774;2023-08-30T08:03:21;2.55;;;2.00;;
74158;SDS011;62511;47.970;11.774;2023-08-30T08:05:48;4.20;;;1.98;;
74158;SDS011;62511;47.970;11.774;2023-08-30T08:08:14;2.80;;;1.85;;
74158;SDS011;62511;47.970;11.774;2023-08-30T08:10:44;3.83;;;2.30;;
74158;SDS011;62511;47.970;11.774;2023-08-30T08:13:11;4.13;;;2.08;;
74158;SDS011;62511;47.970;11.774;2023-08-30T08:15:37;2.63;;;2.10;;
74158;SDS011;62511;47.970;11.774;2023-08-30T08:18:04;3.97;;;2.22;;
74158;SDS011;62511;47.970;11.774;2023-08-30T08:20:30;4.10;;;2.83;;
74158;SDS011;62511;47.970;11.774;2023-08-30T08:22:56;4.03;;;2.80;;
74158;SDS011;62511;47.970;11.774;2023-08-30T08:25:22;3.08;;;2.30;;
74158;SDS011;62511;47.970;11.774;2023-08-30T08:27:49;3.88;;;2.83;;
74158;SDS011;62511;47.970;11.774;2023-08-30T08:32:41;3.30;;;2.35;;
74158;SDS011;62511;47.970;11.774;2023-08-30T08:35:08;3.63;;;2.33;;
74158;SDS011;62511;47.970;11.774;2023-08-30T08:37:34;3.65;;;2.55;;
74158;SDS011;62511;47.970;11.774;2023-08-30T08:40:00;3.72;;;2.60;;
74158;SDS011;62511;47.970;11.774;2023-08-30T08:42:33;2.95;;;2.28;;
74158;SDS011;62511;47.970;11.774;2023-08-30T08:44:59;2.70;;;2.10;;
74158;SDS011;62511;47.970;11.774;2023-08-30T08:47:25;3.22;;;2.10;;
74158;SDS011;62511;47.970;11.774;2023-08-30T08:49:53;3.70;;;2.10;;
74158;SDS011;62511;47.970;11.774;2023-08-30T08:52:19;3.33;;;2.30;;
74158;SDS011;62511;47.970;11.774;2023-08-30T08:54:46;3.38;;;2.35;;
74158;SDS011;62511;47.970;11.774;2023-08-30T08:57:15;2.90;;;2.20;;
74158;SDS011;62511;47.970;11.774;2023-08-30T08:59:50;2.72;;;2.42;;
74158;SDS011;62511;47.970;11.774;2023-08-30T09:02:16;2.72;;;2.50;;
74158;SDS011;62511;47.970;11.774;2023-08-30T09:04:42;4.68;;;2.78;;
74158;SDS011;62511;47.970;11.774;2023-08-30T09:07:08;4.45;;;2.90;;
74158;SDS011;62511;47.970;11.774;2023-08-30T09:09:34;2.92;;;2.28;;
74158;SDS011;62511;47.970;11.774;2023-08-30T09:12:02;3.63;;;2.30;;
74158;SDS011;62511;47.970;11.774;2023-08-30T09:14:30;5.43;;;2.70;;
74158;SDS011;62511;47.970;11.774;2023-08-30T09:16:59;3.03;;;2.40;;
74158;SDS011;62511;47.970;11.774;2023-08-30T09:19:26;4.05;;;2.72;;
74158;SDS011;62511;47.970;11.774;2023-08-30T09:24:18;2.90;;;2.33;;
74158;SDS011;62511;47.970;11.774;2023-08-30T09:26:47;3.13;;;2.40;;
74158;SDS011;62511;47.970;11.774;2023-08-30T09:29:14;3.63;;;2.50;;
74158;SDS011;62511;47.970;11.774;2023-08-30T09:31:41;4.03;;;2.60;;
74158;SDS011;62511;47.970;11.774;2023-08-30T09:34:07;4.43;;;2.65;;
74158;SDS011;62511;47.970;11.774;2023-08-30T09:36:41;3.40;;;2.53;;
74158;SDS011;62511;47.970;11.774;2023-08-30T09:39:11;3.50;;;2.63;;
74158;SDS011;62511;47.970;11.774;2023-08-30T09:41:42;4.60;;;3.67;;
74158;SDS011;62511;47.970;11.774;2023-08-30T09:44:11;3.55;;;2.45;;
74158;SDS011;62511;47.970;11.774;2023-08-30T09:46:44;3.55;;;2.75;;
74158;SDS011;62511;47.970;11.774;2023-08-30T09:49:11;6.80;;;3.45;;
74158;SDS011;62511;47.970;11.774;2023-08-30T09:51:38;3.92;;;3.20;;
74158;SDS011;62511;47.970;11.774;2023-08-30T09:54:14;5.38;;;3.60;;
74158;SDS011;62511;47.970;11.774;2023-08-30T09:56:41;4.10;;;3.10;;
74158;SDS011;62511;47.970;11.774;2023-08-30T09:59:10;5.55;;;3.30;;
74158;SDS011;62511;47.970;11.774;2023-08-30T10:01:37;4.93;;;3.65;;
74158;SDS011;62511;47.970;11.774;2023-08-30T10:04:04;4.25;;;3.50;;
74158;SDS011;62511;47.970;11.774;2023-08-30T10:06:30;4.60;;;3.20;;
74158;SDS011;62511;47.970;11.774;2023-08-30T10:08:56;3.95;;;3.08;;
74158;SDS011;62511;47.970;11.774;2023-08-30T10:11:24;4.50;;;2.58;;
74158;SDS011;62511;47.970;11.774;2023-08-30T10:13:53;5.50;;;2.95;;
74158;SDS011;62511;47.970;11.774;2023-08-30T10:16:19;5.65;;;2.67;;
74158;SDS011;62511;47.970;11.774;2023-08-30T10:18:50;3.42;;;2.60;;
74158;SDS011;62511;47.970;11.774;2023-08-30T10:21:18;3.45;;;2.38;;
74158;SDS011;62511;47.970;11.774;2023-08-30T10:23:45;3.30;;;2.60;;
74158;SDS011;62511;47.970;11.774;2023-08-30T10:26:13;3.20;;;2.33;;
74158;SDS011;62511;47.970;11.774;2023-08-30T10:28:40;3.30;;;2.47;;
74158;SDS011;62511;47.970;11.774;2023-08-30T10:31:07;3.05;;;2.33;;
74158;SDS011;62511;47.970;11.774;2023-08-30T10:33:43;3.92;;;2.45;;
74158;SDS011;62511;47.970;11.774;2023-08-30T10:36:09;2.53;;;2.00;;
74158;SDS011;62511;47.970;11.774;2023-08-30T10:38:35;2.67;;;2.13;;
74158;SDS011;62511;47.970;11.774;2023-08-30T10:41:09;2.30;;;2.08;;
74158;SDS011;62511;47.970;11.774;2023-08-30T10:43:35;2.60;;;1.83;;
74158;SDS011;62511;47.970;11.774;2023-08-30T10:46:04;2.67;;;1.92;;
74158;SDS011;62511;47.970;11.774;2023-08-30T10:48:41;2.10;;;1.85;;
74158;SDS011;62511;47.970;11.774;2023-08-30T10:51:21;1.67;;;1.48;;
74158;SDS011;62511;47.970;11.774;2023-08-30T10:53:57;1.70;;;1.60;;
74158;SDS011;62511;47.970;11.774;2023-08-30T10:56:27;2.75;;;1.50;;
74158;SDS011;62511;47.970;11.774;2023-08-30T10:58:54;2.65;;;1.58;;
74158;SDS011;62511;47.970;11.774;2023-08-30T11:01:20;4.05;;;1.65;;
74158;SDS011;62511;47.970;11.774;2023-08-30T11:03:46;1.85;;;1.30;;
74158;SDS011;62511;47.970;11.774;2023-08-30T11:06:13;1.30;;;1.17;;
74158;SDS011;62511;47.970;11.774;2023-08-30T11:08:39;2.42;;;1.30;;
74158;SDS011;62511;47.970;11.774;2023-08-30T11:11:07;1.67;;;1.10;;
74158;SDS011;62511;47.970;11.774;2023-08-30T11:13:35;1.33;;;1.23;;
74158;SDS011;62511;47.970;11.774;2023-08-30T11:16:02;1.50;;;1.10;;
74158;SDS011;62511;47.970;11.774;2023-08-30T11:18:36;2.65;;;1.38;;
74158;SDS011;62511;47.970;11.774;2023-08-30T11:21:05;1.70;;;1.60;;
74158;SDS011;62511;47.970;11.774;2023-08-30T11:23:31;1.30;;;1.20;;
74158;SDS011;62511;47.970;11.774;2023-08-30T11:25:57;1.63;;;1.48;;
74158;SDS011;62511;47.970;11.774;2023-08-30T11:28:24;1.30;;;1.20;;
74158;SDS011;62511;47.970;11.774;2023-08-30T11:30:54;1.55;;;1.20;;
74158;SDS011;62511;47.970;11.774;2023-08-30T11:33:20;1.65;;;1.35;;
74158;SDS011;62511;47.970;11.774;2023-08-30T11:35:49;2.78;;;1.17;;
74158;SDS011;62511;47.970;11.774;2023-08-30T11:38:17;3.55;;;1.40;;
74158;SDS011;62511;47.970;11.774;2023-08-30T11:40:45;1.70;;;1.38;;
74158;SDS011;62511;47.970;11.774;2023-08-30T11:43:11;1.33;;;1.17;;
74158;SDS011;62511;47.970;11.774;2023-08-30T11:45:37;1.55;;;1.20;;
74158;SDS011;62511;47.970;11.774;2023-08-30T11:48:03;2.50;;;1.58;;
74158;SDS011;62511;47.970;11.774;2023-08-30T11:50:29;3.05;;;1.42;;
74158;SDS011;62511;47.970;11.774;2023-08-30T11:52:56;1.45;;;1.33;;
74158;SDS011;62511;47.970;11.774;2023-08-30T11:55:22;1.60;;;1.17;;
74158;SDS011;62511;47.970;11.774;2023-08-30T11:57:50;0.98;;;0.90;;
74158;SDS011;62511;47.970;11.774;2023-08-30T12:00:17;2.28;;;1.40;;
74158;SDS011;62511;47.970;11.774;2023-08-30T12:02:44;2.10;;;1.00;;
74158;SDS011;62511;47.970;11.774;2023-08-30T12:05:12;0.95;;;0.90;;
74158;SDS011;62511;47.970;11.774;2023-08-30T12:07:38;5.32;;;3.13;;
74158;SDS011;62511;47.970;11.774;2023-08-30T12:10:07;2.22;;;1.00;;
74158;SDS011;62511;47.970;11.774;2023-08-30T12:12:33;1.35;;;0.98;;
74158;SDS011;62511;47.970;11.774;2023-08-30T12:15:12;3.03;;;1.00;;
74158;SDS011;62511;47.970;11.774;2023-08-30T12:17:41;1.20;;;1.10;;
74158;SDS011;62511;47.970;11.774;2023-08-30T12:20:14;1.02;;;0.93;;
74158;SDS011;62511;47.970;11.774;2023-08-30T12:22:41;1.27;;;1.02;;
74158;SDS011;62511;47.970;11.774;2023-08-30T12:25:17;2.35;;;1.00;;
74158;SDS011;62511;47.970;11.774;2023-08-30T12:27:43;1.10;;;1.00;;
74158;SDS011;62511;47.970;11.774;2023-08-30T12:30:10;2.72;;;1.35;;
74158;SDS011;62511;47.970;11.774;2023-08-30T12:32:36;1.65;;;0.93;;
74158;SDS011;62511;47.970;11.774;2023-08-30T12:35:02;1.42;;;1.02;;
74158;SDS011;62511;47.970;11.774;2023-08-30T12:37:28;0.90;;;0.85;;
74158;SDS011;62511;47.970;11.774;2023-08-30T12:39:54;1.83;;;1.00;;
74158;SDS011;62511;47.970;11.774;2023-08-30T12:42:20;1.73;;;1.10;;
74158;SDS011;62511;47.970;11.774;2023-08-30T12:44:46;1.33;;;1.20;;
74158;SDS011;62511;47.970;11.774;2023-08-30T12:47:12;1.90;;;0.90;;
74158;SDS011;62511;47.970;11.774;2023-08-30T12:52:05;1.77;;;0.90;;
74158;SDS011;62511;47.970;11.774;2023-08-30T12:54:32;1.10;;;1.00;;
74158;SDS011;62511;47.970;11.774;2023-08-30T12:56:58;2.08;;;1.00;;
74158;SDS011;62511;47.970;11.774;2023-08-30T12:59:25;1.17;;;0.80;;
74158;SDS011;62511;47.970;11.774;2023-08-30T13:01:51;1.17;;;0.80;;
74158;SDS011;62511;47.970;11.774;2023-08-30T13:04:17;1.58;;;0.88;;
74158;SDS011;62511;47.970;11.774;2023-08-30T13:06:43;1.80;;;0.93;;
74158;SDS011;62511;47.970;11.774;2023-08-30T13:09:09;1.85;;;0.88;;
74158;SDS011;62511;47.970;11.774;2023-08-30T13:11:35;0.88;;;0.73;;
74158;SDS011;62511;47.970;11.774;2023-08-30T13:14:01;1.20;;;1.10;;
74158;SDS011;62511;47.970;11.774;2023-08-30T13:16:27;0.98;;;0.80;;
74158;SDS011;62511;47.970;11.774;2023-08-30T13:18:53;1.38;;;0.88;;
74158;SDS011;62511;47.970;11.774;2023-08-30T13:21:19;1.02;;;0.80;;
74158;SDS011;62511;47.970;11.774;2023-08-30T13:23:45;0.88;;;0.60;;
74158;SDS011;62511;47.970;11.774;2023-08-30T13:26:11;0.95;;;0.80;;
74158;SDS011;62511;47.970;11.774;2023-08-30T13:28:37;0.90;;;0.80;;
74158;SDS011;62511;47.970;11.774;2023-08-30T13:31:06;0.73;;;0.60;;
74158;SDS011;62511;47.970;11.774;2023-08-30T13:33:32;3.85;;;0.80;;
74158;SDS011;62511;47.970;11.774;2023-08-30T13:35:58;1.95;;;0.80;;
74158;SDS011;62511;47.970;11.774;2023-08-30T13:38:25;1.50;;;0.68;;
74158;SDS011;62511;47.970;11.774;2023-08-30T13:40:57;0.63;;;0.50;;
74158;SDS011;62511;47.970;11.774;2023-08-30T13:43:24;0.70;;;0.70;;
74158;SDS011;62511;47.970;11.774;2023-08-30T13:45:56;2.97;;;0.70;;
74158;SDS011;62511;47.970;11.774;2023-08-30T13:48:22;0.73;;;0.60;;
74158;SDS011;62511;47.970;11.774;2023-08-30T13:50:49;0.80;;;0.70;;
74158;SDS011;62511;47.970;11.774;2023-08-30T13:53:15;3.70;;;0.70;;
74158;SDS011;62511;47.970;11.774;2023-08-30T13:55:45;1.30;;;0.70;;
74158;SDS011;62511;47.970;11.774;2023-08-30T13:58:11;1.00;;;0.63;;
74158;SDS011;62511;47.970;11.774;2023-08-30T14:00:37;1.15;;;0.80;;
74158;SDS011;62511;47.970;11.774;2023-08-30T14:03:03;1.10;;;0.80;;
74158;SDS011;62511;47.970;11.774;2023-08-30T14:05:29;1.73;;;0.80;;
74158;SDS011;62511;47.970;11.774;2023-08-30T14:08:06;1.85;;;0.70;;
74158;SDS011;62511;47.970;11.774;2023-08-30T14:10:32;0.88;;;0.70;;
74158;SDS011;62511;47.970;11.774;2023-08-30T14:12:58;2.65;;;0.70;;
74158;SDS011;62511;47.970;11.774;2023-08-30T14:15:24;1.05;;;0.60;;
74158;SDS011;62511;47.970;11.774;2023-08-30T14:17:50;1.00;;;0.63;;
74158;SDS011;62511;47.970;11.774;2023-08-30T14:20:16;1.67;;;0.80;;
74158;SDS011;62511;47.970;11.774;2023-08-30T14:22:42;0.50;;;0.50;;
74158;SDS011;62511;47.970;11.774;2023-08-30T14:25:08;1.45;;;0.70;;
74158;SDS011;62511;47.970;11.774;2023-08-30T14:27:35;1.92;;;0.90;;
74158;SDS011;62511;47.970;11.774;2023-08-30T14:30:01;0.90;;;0.65;;
74158;SDS011;62511;47.970;11.774;2023-08-30T14:32:27;1.83;;;0.80;;
74158;SDS011;62511;47.970;11.774;2023-08-30T14:34:53;2.00;;;0.57;;
74158;SDS011;62511;47.970;11.774;2023-08-30T14:37:19;1.83;;;0.60;;
74158;SDS011;62511;47.970;11.774;2023-08-30T14:39:45;1.10;;;0.73;;
74158;SDS011;62511;47.970;11.774;2023-08-30T14:42:11;1.33;;;0.88;;
74158;SDS011;62511;47.970;11.774;2023-08-30T14:44:37;1.52;;;0.80;;
74158;SDS011;62511;47.970;11.774;2023-08-30T14:47:03;1.25;;;0.70;;
74158;SDS011;62511;47.970;11.774;2023-08-30T14:49:30;0.60;;;0.60;;
74158;SDS011;62511;47.970;11.774;2023-08-30T14:51:57;1.33;;;0.80;;
74158;SDS011;62511;47.970;11.774;2023-08-30T14:54:23;0.73;;;0.70;;
74158;SDS011;62511;47.970;11.774;2023-08-30T14:56:49;1.17;;;1.00;;